Terminal Aerodrome Forecast
Issued by NWS Twin Cities, MN

Home | Current Version | Previous Version | Graphics & Text | Print | Product List | Glossary On
Versions: 1 2 3 4 5 6 7 8 9 10 11 12 13 14 15 16
000
FTUS43 KMPX 272341
TAFEAU
TAF
KEAU 272341Z 2800/2824 36006KT P6SM -SHRA VCTS SCT020 OVC050CB
     FM280100 03006KT P6SM SCT020 OVC050
     FM280600 04004KT 4SM BR VCSH OVC008
     FM281600 06007KT P6SM VCSH BKN018
      AMD NOT SKED=

USA.gov is the U.S. government's official web portal to all federal, state and local government web resources and services.